createdAt,value
2023-04-20T00:02:06.077Z,61.20
2023-04-20T00:04:32.586Z,61.41
2023-04-20T00:06:59.325Z,61.52
2023-04-20T00:09:25.708Z,61.62
2023-04-20T00:11:52.213Z,61.29
2023-04-20T00:14:18.617Z,61.33
2023-04-20T00:16:45.293Z,61.21
2023-04-20T00:19:11.789Z,61.14
2023-04-20T00:21:38.368Z,61.55
2023-04-20T00:24:04.814Z,61.10
2023-04-20T00:26:31.731Z,61.49
2023-04-20T00:28:58.105Z,61.19
2023-04-20T00:31:24.573Z,61.47
2023-04-20T00:33:51.562Z,61.35
2023-04-20T00:36:17.956Z,61.22
2023-04-20T00:38:44.434Z,61.12
2023-04-20T00:41:11.140Z,61.36
2023-04-20T00:43:37.899Z,61.40
2023-04-20T00:46:04.284Z,61.39
2023-04-20T00:48:30.825Z,61.30
2023-04-20T00:50:57.145Z,61.11
2023-04-20T00:53:23.552Z,61.29
2023-04-20T00:55:50.124Z,61.40
2023-04-20T00:58:16.659Z,61.38
2023-04-20T01:00:43.045Z,61.32
2023-04-20T01:03:10.379Z,61.21
2023-04-20T01:05:36.881Z,61.38
2023-04-20T01:08:03.553Z,61.15
2023-04-20T01:10:29.895Z,61.34
2023-04-20T01:12:58.105Z,61.17
2023-04-20T01:15:25.502Z,61.01
2023-04-20T01:17:52.547Z,61.29
2023-04-20T01:20:19.327Z,61.17
2023-04-20T01:22:45.703Z,61.49
2023-04-20T01:25:12.393Z,61.37
2023-04-20T01:27:39.459Z,61.18
2023-04-20T01:30:05.814Z,60.91
2023-04-20T01:32:32.523Z,61.16
2023-04-20T01:34:58.972Z,61.17
2023-04-20T01:37:25.328Z,60.94
2023-04-20T01:39:51.766Z,61.02
2023-04-20T01:42:18.373Z,61.34
2023-04-20T01:44:44.809Z,61.19
2023-04-20T01:47:11.437Z,61.02
2023-04-20T01:49:38.082Z,61.09
2023-04-20T01:52:04.504Z,61.16
2023-04-20T01:54:31.222Z,61.06
2023-04-20T01:56:57.903Z,61.22
2023-04-20T01:59:24.204Z,61.32
2023-04-20T02:01:50.689Z,60.83
2023-04-20T02:04:17.604Z,60.86
2023-04-20T02:06:44.159Z,61.06
2023-04-20T02:09:10.896Z,60.95
2023-04-20T02:11:37.390Z,60.88
2023-04-20T02:14:03.715Z,61.14
2023-04-20T02:16:30.135Z,60.92
2023-04-20T02:18:56.520Z,60.86
2023-04-20T02:21:22.843Z,60.83
2023-04-20T02:23:49.388Z,61.05
2023-04-20T02:26:15.772Z,60.82
2023-04-20T02:28:42.279Z,60.95
2023-04-20T02:31:08.756Z,60.80
2023-04-20T02:33:35.312Z,60.53
2023-04-20T02:36:01.707Z,60.67
2023-04-20T02:38:28.081Z,60.76
2023-04-20T02:40:54.443Z,60.78
2023-04-20T02:43:21.408Z,61.01
2023-04-20T02:45:48.056Z,60.91
2023-04-20T02:48:14.428Z,60.90
2023-04-20T02:50:40.823Z,60.76
2023-04-20T02:53:07.585Z,60.73
2023-04-20T02:55:34.153Z,60.70
2023-04-20T02:58:00.570Z,60.62
2023-04-20T03:00:27.332Z,60.58
2023-04-20T03:02:53.807Z,60.79
2023-04-20T03:05:20.199Z,60.68
2023-04-20T03:07:46.600Z,60.70
2023-04-20T03:10:13.241Z,60.84
2023-04-20T03:12:39.550Z,60.43
2023-04-20T03:15:06.072Z,60.58
2023-04-20T03:17:32.763Z,60.74
2023-04-20T03:19:59.300Z,60.61
2023-04-20T03:22:25.647Z,60.76
2023-04-20T03:24:53.359Z,60.72
2023-04-20T03:27:20.031Z,60.73
2023-04-20T03:29:46.396Z,60.78
2023-04-20T03:32:12.769Z,60.38
2023-04-20T03:34:39.402Z,60.79
2023-04-20T03:37:05.712Z,60.68
2023-04-20T03:39:32.283Z,60.62
2023-04-20T03:41:58.628Z,60.57
2023-04-20T03:44:25.089Z,60.69
2023-04-20T03:46:51.674Z,60.80
2023-04-20T03:49:18.175Z,60.48
2023-04-20T03:51:44.822Z,60.79
2023-04-20T03:54:11.249Z,60.71
2023-04-20T03:56:37.643Z,60.65
2023-04-20T03:59:04.000Z,60.55
2023-04-20T04:01:30.416Z,60.58
2023-04-20T04:03:57.170Z,60.73
2023-04-20T04:06:23.685Z,60.65
2023-04-20T04:08:50.220Z,60.75
2023-04-20T04:11:17.035Z,60.79
2023-04-20T04:13:43.577Z,60.76
2023-04-20T04:16:10.191Z,60.78
2023-04-20T04:18:36.853Z,60.66
2023-04-20T04:21:03.246Z,60.68
2023-04-20T04:23:29.609Z,60.43
2023-04-20T04:25:55.948Z,60.58
2023-04-20T04:28:22.303Z,60.72
2023-04-20T04:30:48.592Z,60.54
2023-04-20T04:33:14.917Z,60.75
2023-04-20T04:35:41.320Z,60.73
2023-04-20T04:38:08.052Z,60.80
2023-04-20T04:40:34.451Z,60.75
2023-04-20T04:43:00.739Z,60.64
2023-04-20T04:45:27.250Z,60.64
2023-04-20T04:47:53.747Z,60.59
2023-04-20T04:50:20.403Z,60.54
2023-04-20T04:52:46.803Z,60.72
2023-04-20T04:55:15.019Z,60.72
2023-04-20T04:57:42.802Z,60.55
2023-04-20T05:00:09.164Z,60.73
2023-04-20T05:02:36.342Z,60.71
2023-04-20T05:05:02.933Z,60.53
2023-04-20T05:07:29.298Z,60.69
2023-04-20T05:09:55.944Z,60.77
2023-04-20T05:12:22.395Z,60.72
2023-04-20T05:14:48.792Z,60.60
2023-04-20T05:17:15.653Z,60.56
2023-04-20T05:19:42.034Z,60.50
2023-04-20T05:22:08.457Z,60.68
2023-04-20T05:24:34.836Z,60.64
2023-04-20T05:27:01.890Z,60.58
2023-04-20T05:29:28.384Z,60.78
2023-04-20T05:31:54.947Z,60.62
2023-04-20T05:34:21.596Z,60.60
2023-04-20T05:36:48.309Z,60.49
2023-04-20T05:39:14.844Z,60.46
2023-04-20T05:41:41.178Z,60.68
2023-04-20T05:44:07.493Z,60.78
2023-04-20T05:46:34.112Z,60.75
2023-04-20T05:49:00.591Z,60.57
2023-04-20T05:51:27.081Z,60.53
2023-04-20T05:53:53.647Z,60.69
2023-04-20T05:56:20.135Z,60.55
2023-04-20T05:58:46.515Z,60.69
2023-04-20T06:01:13.140Z,60.65
2023-04-20T06:03:39.608Z,60.54
2023-04-20T06:06:06.144Z,60.57
2023-04-20T06:08:32.665Z,60.33
2023-04-20T06:10:59.382Z,60.53
2023-04-20T06:13:25.749Z,60.74
2023-04-20T06:15:52.399Z,60.41
2023-04-20T06:18:19.354Z,60.54
2023-04-20T06:20:45.757Z,60.37
2023-04-20T06:23:12.247Z,60.68
2023-04-20T06:25:38.612Z,60.24
2023-04-20T06:28:05.051Z,60.52
2023-04-20T06:30:31.423Z,60.25
2023-04-20T06:32:59.245Z,60.60
2023-04-20T06:35:25.832Z,60.72
2023-04-20T06:37:52.192Z,60.67
2023-04-20T06:40:18.526Z,60.21
2023-04-20T06:42:45.109Z,60.66
2023-04-20T06:45:11.418Z,60.77
2023-04-20T06:47:38.238Z,61.20
2023-04-20T06:50:04.769Z,61.48
2023-04-20T06:52:31.504Z,61.78
2023-04-20T06:54:57.899Z,61.85
2023-04-20T06:57:24.270Z,62.26
2023-04-20T06:59:50.640Z,62.23
2023-04-20T07:02:17.515Z,62.15
2023-04-20T07:04:44.327Z,61.91
2023-04-20T07:07:10.809Z,62.07
2023-04-20T07:09:37.120Z,62.31
2023-04-20T07:12:03.472Z,62.30
2023-04-20T07:14:29.851Z,62.20
2023-04-20T07:16:56.278Z,62.46
2023-04-20T07:19:23.240Z,62.07
2023-04-20T07:21:49.671Z,62.50
2023-04-20T07:24:16.163Z,62.48
2023-04-20T07:26:42.738Z,62.50
2023-04-20T07:29:09.201Z,62.48
2023-04-20T07:31:35.794Z,62.81
2023-04-20T07:34:02.218Z,62.89
2023-04-20T07:36:29.052Z,62.24
2023-04-20T07:38:55.450Z,62.23
2023-04-20T07:41:21.897Z,62.36
2023-04-20T07:43:48.272Z,62.36
2023-04-20T07:46:14.659Z,61.84
2023-04-20T07:48:41.186Z,62.11
2023-04-20T07:51:07.740Z,61.92
2023-04-20T07:53:34.226Z,62.27
2023-04-20T07:56:00.564Z,62.10
2023-04-20T07:58:27.033Z,62.39
2023-04-20T08:00:53.485Z,62.14
2023-04-20T08:03:20.048Z,62.15
2023-04-20T08:05:46.631Z,62.40
2023-04-20T08:08:13.147Z,62.32
2023-04-20T08:10:39.599Z,62.49
2023-04-20T08:13:06.174Z,62.58
2023-04-20T08:15:33.109Z,62.62
2023-04-20T08:17:59.688Z,62.52
2023-04-20T08:20:26.230Z,62.23
2023-04-20T08:22:52.826Z,62.36
2023-04-20T08:25:19.589Z,62.21
2023-04-20T08:27:46.124Z,62.32
2023-04-20T08:30:12.488Z,62.03
2023-04-20T08:32:39.356Z,62.37
2023-04-20T08:35:06.181Z,61.87
2023-04-20T08:37:33.150Z,62.24
2023-04-20T08:39:59.634Z,62.04
2023-04-20T08:42:26.110Z,61.64
2023-04-20T08:44:52.601Z,61.77
2023-04-20T08:47:19.097Z,61.99
2023-04-20T08:49:45.499Z,62.26
2023-04-20T08:52:12.203Z,62.60
2023-04-20T08:54:45.873Z,62.25
2023-04-20T08:57:15.948Z,62.46
2023-04-20T08:59:42.629Z,62.12
2023-04-20T09:02:09.048Z,62.27
2023-04-20T09:04:35.747Z,62.69
2023-04-20T09:07:02.195Z,62.60
2023-04-20T09:09:28.592Z,62.20
2023-04-20T09:11:55.175Z,63.02
2023-04-20T09:14:21.614Z,62.49
2023-04-20T09:16:48.400Z,62.54
2023-04-20T09:19:14.852Z,62.55
2023-04-20T09:21:41.490Z,62.84
2023-04-20T09:24:07.870Z,62.74
2023-04-20T09:26:34.270Z,63.01
2023-04-20T09:29:00.737Z,62.23
2023-04-20T09:31:27.163Z,62.36
2023-04-20T09:33:53.788Z,63.32
2023-04-20T09:36:20.320Z,63.13
2023-04-20T09:38:46.680Z,63.14
2023-04-20T09:41:13.383Z,63.21
2023-04-20T09:43:40.046Z,63.12
2023-04-20T09:46:06.546Z,62.97
2023-04-20T09:48:32.961Z,63.34
2023-04-20T09:50:59.323Z,63.16
2023-04-20T09:53:25.694Z,63.32
2023-04-20T09:55:52.218Z,63.41
2023-04-20T09:58:18.698Z,63.47
2023-04-20T10:00:45.343Z,63.40
2023-04-20T10:03:11.897Z,62.85
2023-04-20T10:05:38.293Z,63.16
2023-04-20T10:08:04.865Z,63.04
2023-04-20T10:10:31.331Z,63.10
2023-04-20T10:12:57.619Z,63.09
2023-04-20T10:15:24.065Z,63.32
2023-04-20T10:17:50.945Z,63.15
2023-04-20T10:20:17.292Z,63.05
2023-04-20T10:22:43.986Z,63.31
2023-04-20T10:25:10.331Z,62.59
2023-04-20T10:27:37.079Z,62.50
2023-04-20T10:30:03.455Z,62.80
2023-04-20T10:32:29.927Z,62.97
2023-04-20T10:34:56.360Z,63.14
2023-04-20T10:37:22.701Z,63.14
2023-04-20T10:39:49.107Z,62.94
2023-04-20T10:42:17.536Z,63.16
2023-04-20T10:44:44.622Z,63.22
2023-04-20T10:47:11.663Z,63.12
2023-04-20T10:49:38.024Z,63.41
2023-04-20T10:52:04.474Z,63.24
2023-04-20T10:54:30.828Z,62.94
2023-04-20T10:56:57.300Z,63.46
2023-04-20T10:59:23.684Z,63.12
2023-04-20T11:01:50.466Z,62.91
2023-04-20T11:04:18.790Z,62.48
2023-04-20T11:06:46.083Z,62.84
2023-04-20T11:09:12.585Z,62.44
2023-04-20T11:11:39.046Z,62.12
2023-04-20T11:14:05.667Z,61.77
2023-04-20T11:16:44.189Z,61.76
2023-04-20T11:19:15.954Z,61.82
2023-04-20T11:21:42.685Z,61.88
2023-04-20T11:24:09.261Z,62.30
2023-04-20T11:26:35.741Z,62.43
2023-04-20T11:29:02.610Z,62.74
2023-04-20T11:31:29.016Z,62.59
2023-04-20T11:33:55.399Z,63.10
2023-04-20T11:36:22.004Z,63.14
2023-04-20T11:38:48.360Z,63.30
2023-04-20T11:41:14.833Z,63.46
2023-04-20T11:43:41.214Z,63.69
2023-04-20T11:46:07.982Z,63.64
2023-04-20T11:48:34.434Z,63.18
2023-04-20T11:51:00.949Z,63.25
2023-04-20T11:53:27.814Z,63.44
2023-04-20T11:55:54.276Z,63.25
2023-04-20T11:58:20.987Z,63.49
2023-04-20T12:00:47.388Z,63.54
2023-04-20T12:03:13.978Z,63.65
2023-04-20T12:05:40.498Z,63.79
2023-04-20T12:08:07.121Z,64.35
2023-04-20T12:10:33.571Z,64.24
2023-04-20T12:13:00.105Z,64.64
2023-04-20T12:15:26.761Z,64.59
2023-04-20T12:17:53.215Z,64.33
2023-04-20T12:20:19.549Z,64.19
2023-04-20T12:22:45.963Z,64.01
2023-04-20T12:25:12.626Z,63.90
2023-04-20T12:27:39.067Z,64.18
2023-04-20T12:30:05.413Z,64.10
2023-04-20T12:32:32.102Z,64.39
2023-04-20T12:34:58.635Z,64.67
2023-04-20T12:37:24.925Z,64.59
2023-04-20T12:39:51.402Z,64.43
2023-04-20T12:42:17.977Z,64.81
2023-04-20T12:44:44.495Z,64.93
2023-04-20T12:47:11.324Z,65.24
2023-04-20T12:49:37.753Z,65.35
2023-04-20T12:52:05.717Z,65.32
2023-04-20T12:54:34.083Z,64.97
2023-04-20T12:57:00.418Z,64.82
2023-04-20T12:59:26.832Z,64.83
2023-04-20T13:01:53.236Z,65.39
2023-04-20T13:04:20.006Z,65.41
2023-04-20T13:06:46.796Z,65.45
2023-04-20T13:09:13.698Z,65.41
2023-04-20T13:11:40.204Z,65.93
2023-04-20T13:14:06.634Z,65.75
2023-04-20T13:16:32.997Z,65.85
2023-04-20T13:18:59.837Z,66.03
2023-04-20T13:21:26.430Z,66.32
2023-04-20T13:23:54.726Z,65.89
2023-04-20T13:26:22.489Z,65.87
2023-04-20T13:28:48.898Z,66.20
2023-04-20T13:31:15.284Z,65.86
2023-04-20T13:33:41.735Z,66.29
2023-04-20T13:36:08.297Z,66.21
2023-04-20T13:38:34.708Z,66.32
2023-04-20T13:41:01.072Z,66.32
2023-04-20T13:43:27.737Z,66.29
2023-04-20T13:45:54.366Z,66.19
2023-04-20T13:48:21.014Z,66.26
2023-04-20T13:50:47.820Z,66.27
2023-04-20T13:53:14.266Z,66.14
2023-04-20T13:55:40.883Z,66.73
2023-04-20T13:58:07.378Z,66.55
2023-04-20T14:00:34.860Z,66.50
2023-04-20T14:03:01.796Z,66.72
2023-04-20T14:05:28.689Z,66.60
2023-04-20T14:07:55.332Z,66.93
2023-04-20T14:10:21.694Z,66.31
2023-04-20T14:12:48.346Z,66.47
2023-04-20T14:15:14.966Z,66.41
2023-04-20T14:17:41.341Z,66.62
2023-04-20T14:20:07.704Z,66.66
2023-04-20T14:22:34.075Z,66.78
2023-04-20T14:25:00.405Z,66.82
2023-04-20T14:27:27.184Z,66.67
2023-04-20T14:29:53.633Z,66.17
2023-04-20T14:32:20.651Z,66.34
2023-04-20T14:34:47.030Z,66.15
2023-04-20T14:37:13.882Z,66.40
2023-04-20T14:39:40.215Z,66.46
2023-04-20T14:42:06.670Z,66.67
2023-04-20T14:44:33.322Z,66.65
2023-04-20T14:47:00.017Z,66.91
2023-04-20T14:49:26.761Z,66.95
2023-04-20T14:51:53.153Z,66.83
2023-04-20T14:54:19.792Z,66.53
2023-04-20T14:56:46.285Z,66.70
2023-04-20T14:59:12.748Z,66.64
2023-04-20T15:01:43.420Z,66.69
2023-04-20T15:04:18.079Z,66.69
2023-04-20T15:06:44.828Z,66.19
2023-04-20T15:09:11.243Z,66.69
2023-04-20T15:11:38.101Z,66.29
2023-04-20T15:14:04.670Z,66.73
2023-04-20T15:16:31.460Z,66.44
2023-04-20T15:18:58.017Z,66.36
2023-04-20T15:21:24.515Z,66.73
2023-04-20T15:23:51.130Z,66.81
2023-04-20T15:26:17.616Z,66.61
2023-04-20T15:28:43.905Z,66.77
2023-04-20T15:31:10.409Z,67.01
2023-04-20T15:33:36.782Z,66.87
2023-04-20T15:36:03.558Z,66.78
2023-04-20T15:38:29.845Z,66.87
2023-04-20T15:40:56.328Z,67.39
2023-04-20T15:43:22.697Z,67.16
2023-04-20T15:45:49.141Z,67.14
2023-04-20T15:48:15.548Z,66.98
2023-04-20T15:50:42.546Z,67.05
2023-04-20T15:53:08.857Z,67.17
2023-04-20T15:55:35.635Z,66.70
2023-04-20T15:58:02.048Z,66.89
2023-04-20T16:00:28.564Z,66.84
2023-04-20T16:02:55.448Z,67.04
2023-04-20T16:05:21.941Z,67.16
2023-04-20T16:07:48.663Z,67.17
2023-04-20T16:10:15.409Z,67.56
2023-04-20T16:12:41.740Z,67.21
2023-04-20T16:15:08.108Z,67.19
2023-04-20T16:17:35.115Z,67.38
2023-04-20T16:20:01.514Z,67.13
2023-04-20T16:22:28.095Z,66.98
2023-04-20T16:24:54.508Z,66.86
2023-04-20T16:27:20.887Z,67.14
2023-04-20T16:29:47.319Z,66.85
2023-04-20T16:32:13.784Z,66.70
2023-04-20T16:34:40.176Z,66.79
2023-04-20T16:37:06.968Z,66.83
2023-04-20T16:39:33.457Z,66.79
2023-04-20T16:41:59.799Z,66.94
2023-04-20T16:44:26.928Z,66.80
2023-04-20T16:46:53.372Z,66.93
2023-04-20T16:49:19.852Z,66.97
2023-04-20T16:51:46.405Z,67.04
2023-04-20T16:54:13.238Z,66.83
2023-04-20T16:56:39.599Z,66.88
2023-04-20T16:59:05.975Z,66.68
2023-04-20T17:01:32.465Z,66.91
2023-04-20T17:03:59.551Z,66.94
2023-04-20T17:06:26.675Z,66.89
2023-04-20T17:08:53.278Z,66.89
2023-04-20T17:11:20.058Z,66.69
2023-04-20T17:13:46.894Z,66.68
2023-04-20T17:16:13.307Z,67.01
2023-04-20T17:18:41.638Z,67.05
2023-04-20T17:21:08.514Z,66.58
2023-04-20T17:23:34.875Z,66.61
2023-04-20T17:26:01.285Z,66.68
2023-04-20T17:28:27.664Z,66.67
2023-04-20T17:30:54.244Z,66.58
2023-04-20T17:33:20.615Z,66.59
2023-04-20T17:35:47.110Z,66.79
2023-04-20T17:38:13.857Z,66.84
2023-04-20T17:40:40.685Z,67.04
2023-04-20T17:43:07.674Z,67.03
2023-04-20T17:45:34.123Z,67.31
2023-04-20T17:48:01.192Z,66.86
2023-04-20T17:50:27.679Z,67.47
2023-04-20T17:52:54.023Z,67.38
2023-04-20T17:55:20.856Z,67.67
2023-04-20T17:57:47.213Z,67.53
2023-04-20T18:00:13.828Z,67.76
2023-04-20T18:02:40.378Z,67.85
2023-04-20T18:05:07.464Z,68.16
2023-04-20T18:07:34.328Z,68.44
2023-04-20T18:10:01.701Z,68.63
2023-04-20T18:12:28.617Z,69.03
2023-04-20T18:14:55.142Z,69.10
2023-04-20T18:17:21.652Z,69.22
2023-04-20T18:19:48.540Z,69.04
2023-04-20T18:22:14.974Z,69.45
2023-04-20T18:24:41.521Z,69.50
2023-04-20T18:27:08.420Z,69.68
2023-04-20T18:29:34.819Z,69.89
2023-04-20T18:32:01.508Z,69.98
2023-04-20T18:34:28.231Z,69.81
2023-04-20T18:36:55.070Z,70.00
2023-04-20T18:39:21.518Z,70.19
2023-04-20T18:41:48.104Z,70.09
2023-04-20T18:44:14.941Z,70.39
2023-04-20T18:46:41.589Z,70.50
2023-04-20T18:49:08.057Z,70.52
2023-04-20T18:51:34.550Z,70.70
2023-04-20T18:54:01.106Z,70.82
2023-04-20T18:56:27.570Z,70.57
2023-04-20T18:58:54.337Z,71.00
2023-04-20T19:01:21.308Z,70.96
2023-04-20T19:03:48.297Z,71.04
2023-04-20T19:06:14.867Z,71.11
2023-04-20T19:08:41.560Z,70.73
2023-04-20T19:11:08.662Z,70.78
2023-04-20T19:13:35.092Z,70.85
2023-04-20T19:16:01.765Z,70.85
2023-04-20T19:18:28.219Z,70.75
2023-04-20T19:20:54.867Z,71.29
2023-04-20T19:23:21.731Z,71.14
2023-04-20T19:25:48.400Z,71.03
2023-04-20T19:28:15.065Z,71.22
2023-04-20T19:30:42.939Z,70.95
2023-04-20T19:33:09.436Z,71.10
2023-04-20T19:35:35.959Z,70.88
2023-04-20T19:38:02.406Z,70.75
2023-04-20T19:40:29.071Z,70.83
2023-04-20T19:42:56.188Z,71.02
2023-04-20T19:45:22.680Z,70.76
2023-04-20T19:47:49.184Z,70.62
2023-04-20T19:50:15.729Z,70.55
2023-04-20T19:52:42.304Z,70.46
2023-04-20T19:55:08.961Z,70.60
2023-04-20T19:57:35.543Z,70.55
2023-04-20T20:00:02.024Z,70.38
2023-04-20T20:02:29.454Z,70.52
2023-04-20T20:04:56.011Z,70.56
2023-04-20T20:07:23.186Z,70.62
2023-04-20T20:09:50.847Z,70.55
2023-04-20T20:12:17.936Z,70.24
2023-04-20T20:14:44.394Z,70.08
2023-04-20T20:17:10.918Z,70.18
2023-04-20T20:19:38.218Z,70.30
2023-04-20T20:22:04.769Z,70.07
2023-04-20T20:24:31.781Z,70.23
2023-04-20T20:26:58.257Z,69.89
2023-04-20T20:29:24.738Z,70.11
2023-04-20T20:31:51.622Z,69.93
2023-04-20T20:34:18.742Z,69.82
2023-04-20T20:36:45.397Z,70.17
2023-04-20T20:39:11.850Z,70.03
2023-04-20T20:41:38.815Z,69.66
2023-04-20T20:44:05.466Z,70.07
2023-04-20T20:46:32.785Z,70.12
2023-04-20T20:49:00.944Z,69.97
2023-04-20T20:51:28.104Z,70.27
2023-04-20T20:53:54.661Z,69.96
2023-04-20T20:56:21.412Z,69.83
2023-04-20T20:58:48.247Z,69.68
2023-04-20T21:01:15.464Z,69.52
2023-04-20T21:03:42.476Z,69.75
2023-04-20T21:06:09.664Z,70.01
2023-04-20T21:08:36.159Z,69.66
2023-04-20T21:11:03.061Z,69.65
2023-04-20T21:13:29.485Z,69.55
2023-04-20T21:15:56.389Z,69.48
2023-04-20T21:18:22.811Z,69.53
2023-04-20T21:20:49.912Z,69.71
2023-04-20T21:23:16.438Z,69.63
2023-04-20T21:25:42.914Z,69.36
2023-04-20T21:28:09.332Z,69.56
2023-04-20T21:30:35.832Z,69.57
2023-04-20T21:33:02.386Z,69.41
2023-04-20T21:35:28.954Z,69.54
2023-04-20T21:37:55.733Z,69.27
2023-04-20T21:40:22.203Z,69.25
2023-04-20T21:42:48.704Z,69.43
2023-04-20T21:45:15.130Z,69.40
2023-04-20T21:47:41.861Z,69.51
2023-04-20T21:50:08.427Z,69.18
2023-04-20T21:52:35.367Z,69.35
2023-04-20T21:55:01.911Z,69.10
2023-04-20T21:57:29.148Z,69.10
2023-04-20T21:59:55.544Z,69.16
2023-04-20T22:02:22.331Z,69.29
2023-04-20T22:04:49.325Z,69.15
2023-04-20T22:07:18.215Z,69.12
2023-04-20T22:09:44.636Z,68.74
2023-04-20T22:12:11.059Z,68.96
2023-04-20T22:14:37.424Z,68.85
2023-04-20T22:17:04.259Z,68.58
2023-04-20T22:19:30.641Z,68.25
2023-04-20T22:21:57.043Z,68.49
2023-04-20T22:24:23.598Z,68.17
2023-04-20T22:26:50.084Z,68.41
2023-04-20T22:29:16.993Z,68.15
2023-04-20T22:31:43.944Z,67.85
2023-04-20T22:34:10.433Z,67.82
2023-04-20T22:36:36.900Z,68.13
2023-04-20T22:39:04.837Z,67.62
2023-04-20T22:41:31.210Z,67.71
2023-04-20T22:43:57.582Z,67.61
2023-04-20T22:46:24.019Z,67.68
2023-04-20T22:48:50.503Z,67.62
2023-04-20T22:51:16.899Z,67.41
2023-04-20T22:53:43.416Z,67.21
2023-04-20T22:56:10.089Z,67.28
2023-04-20T22:58:36.509Z,66.82
2023-04-20T23:01:03.293Z,66.81
2023-04-20T23:03:29.956Z,67.31
2023-04-20T23:05:56.601Z,67.00
2023-04-20T23:08:23.102Z,66.57
2023-04-20T23:10:49.538Z,66.47
2023-04-20T23:13:16.231Z,66.91
2023-04-20T23:15:42.877Z,66.34
2023-04-20T23:18:09.309Z,66.43
2023-04-20T23:20:35.820Z,66.71
2023-04-20T23:23:02.233Z,66.56
2023-04-20T23:25:28.744Z,66.35
2023-04-20T23:27:55.199Z,66.44
2023-04-20T23:30:21.783Z,66.30
2023-04-20T23:32:48.272Z,66.35
2023-04-20T23:35:14.736Z,66.04
2023-04-20T23:37:41.098Z,66.38
2023-04-20T23:40:07.800Z,66.39
2023-04-20T23:42:34.251Z,66.40
2023-04-20T23:45:00.733Z,66.16
2023-04-20T23:47:27.501Z,66.28
2023-04-20T23:49:53.942Z,65.91
2023-04-20T23:52:20.418Z,66.16
2023-04-20T23:54:46.858Z,66.27
2023-04-20T23:57:13.535Z,66.47
2023-04-20T23:59:40.188Z,66.17
